Airport View

Enter AWOS ICAO identifier for current METAR.

ex. KFNL

PATL 261155Z AUTO 00000KT 10SM OVC130 17/10 A3010

26 Jun 2019 12:47

Phone: 907-552-1106

Other Area AWOS: PAMC - PAFS - PASL - PAHX

TAF PAMC 261122Z 2612/2712 VRB06KT P6SM FEW050 SCT100 SCT200 FM270000 VRB06KT P6SM SCT050 BKN100 BKN200